createdAt,value
2022-11-16T15:31:23.452Z,30.07
2022-11-16T15:34:01.142Z,37.87
2022-11-16T15:36:44.467Z,27.53
2022-11-16T15:42:03.771Z,30.57
2022-11-16T15:44:42.223Z,29.93
2022-11-16T15:47:22.643Z,33.40
2022-11-16T15:50:00.372Z,40.83
2022-11-16T15:52:50.683Z,37.93
2022-11-16T15:55:33.312Z,37.67
2022-11-16T15:58:27.615Z,46.63
2022-11-16T16:01:05.552Z,44.67
2022-11-16T16:26:35.214Z,71.03
2022-11-16T16:29:14.163Z,72.20
2022-11-16T17:16:30.890Z,41.83
2022-11-16T17:19:11.648Z,37.63
2022-11-16T17:21:53.593Z,40.90
2022-11-16T17:24:39.561Z,44.93
2022-11-16T17:27:22.287Z,48.87
2022-11-16T17:30:04.126Z,50.63
2022-11-16T17:32:49.112Z,46.13
2022-11-16T17:35:31.503Z,40.67
2022-11-16T17:38:14.768Z,45.23
2022-11-16T17:40:54.474Z,44.40
2022-11-16T17:43:32.756Z,48.37
2022-11-16T17:46:15.540Z,53.00
2022-11-16T17:49:00.331Z,48.13
2022-11-16T17:51:40.666Z,42.87
2022-11-16T17:54:22.522Z,41.40
2022-11-16T18:08:54.224Z,40.43
2022-11-16T18:11:34.186Z,44.63
2022-11-16T18:14:13.622Z,39.03
2022-11-16T18:16:54.802Z,43.57
2022-11-16T18:19:34.305Z,39.47
2022-11-16T18:22:14.644Z,37.17
2022-11-16T18:24:56.546Z,41.13
2022-11-16T18:27:36.629Z,42.05
2022-11-16T18:30:18.757Z,37.40
2022-11-16T18:33:04.501Z,49.60
2022-11-16T18:58:53.364Z,41.47
2022-11-16T19:01:35.624Z,44.63
2022-11-16T19:04:14.433Z,50.77
2022-11-16T19:06:52.987Z,57.27
2022-11-16T19:09:30.872Z,61.10
2022-11-16T19:12:10.827Z,89.23
2022-11-16T19:14:52.385Z,65.67
2022-11-16T19:17:48.020Z,75.87
2022-11-16T19:20:33.222Z,74.13
2022-11-16T19:23:12.053Z,64.17
2022-11-16T19:25:50.403Z,71.37
2022-11-16T19:28:29.737Z,59.83
2022-11-16T19:31:16.749Z,55.13
2022-11-16T19:45:06.233Z,48.13
2022-11-16T19:51:44.096Z,46.83
2022-11-16T19:54:23.258Z,44.83
2022-11-16T19:57:02.451Z,45.00
2022-11-16T19:59:41.525Z,35.77
2022-11-16T20:02:19.706Z,37.67
2022-11-16T20:16:45.936Z,15.38
2022-11-16T20:20:28.685Z,27.40
2022-11-16T20:22:04.655Z,14.20
2022-11-16T20:24:43.952Z,15.40
2022-11-16T20:27:24.995Z,20.57
